EST,Max TemperatureF,Mean TemperatureF,Min TemperatureF,Max Dew PointF,MeanDew PointF,Min DewpointF,Max Humidity, Mean Humidity, Min Humidity, Max Sea Level PressureIn, Mean Sea Level PressureIn, Min Sea Level PressureIn, Max VisibilityMiles, Mean VisibilityMiles, Min VisibilityMiles, Max Wind SpeedMPH, Mean Wind SpeedMPH, Max Gust SpeedMPH,PrecipitationIn, CloudCover, Events, WindDirDegrees
2012-12-1,62,48,33,48,42,32,92,74,55,30.18,30.10,30.01,10,9,5,18,7,25,0.00,3,,195
2012-12-2,63,58,52,56,52,44,100,76,51,30.08,30.01,29.95,10,9,5,16,6,22,0.14,7,Rain,233
2012-12-3,70,63,55,59,57,54,100,81,61,30.08,30.01,29.91,10,6,0,23,10,35,0.00,6,Fog,199
2012-12-4,63,51,38,54,45,37,100,82,63,30.24,30.08,29.94,10,9,2,20,7,24,0.16,6,Rain,303
2012-12-5,43,37,30,36,29,25,92,73,53,30.43,30.34,30.25,10,10,2,14,6,17,0.00,0,,69
2012-12-6,47,37,26,36,31,24,92,79,65,30.25,30.10,29.97,10,10,10,13,5,16,0.00,1,,137
2012-12-7,47,44,41,45,42,37,100,88,76,29.97,29.91,29.84,10,4,2,10,3,13,0.22,8,Rain,58
2012-12-8,45,44,42,44,40,33,100,90,82,30.07,29.94,29.83,10,5,0,12,4,16,0.01,8,Fog,10
2012-12-9,50,44,38,49,42,35,100,93,85,30.06,29.83,29.72,10,5,2,22,11,25,0.25,8,Rain,119
2012-12-10,40,34,28,36,28,23,100,89,78,29.99,29.83,29.75,10,9,5,18,11,26,0.00,8,,296
2012-12-11,35,30,25,26,22,20,92,74,56,30.22,30.10,29.97,10,10,7,16,7,22,0.00,3,,252
2012-12-12,43,32,21,26,22,19,92,69,45,30.38,30.33,30.24,10,10,10,10,2,14,0.00,0,,201
2012-12-13,47,38,28,26,23,21,75,56,37,30.38,30.31,30.20,10,10,10,14,6,20,0.00,0,,203
2012-12-14,50,39,28,30,26,22,75,61,46,30.27,30.20,30.11,10,10,10,10,3,14,0.00,0,,192
2012-12-15,54,47,39,50,40,27,89,73,57,30.09,29.82,29.66,10,9,4,23,9,31,0.21,7,Rain,179
2012-12-16,54,47,40,50,43,36,93,80,66,29.75,29.69,29.65,10,10,7,14,8,22,0.00,8,,260
2012-12-17,40,38,35,36,34,33,92,86,79,29.76,29.70,29.62,10,6,2,13,5,16,0.06,8,Rain,358
2012-12-18,44,39,33,36,32,28,100,88,76,29.84,29.76,29.65,10,8,3,23,8,31,0.02,7,Rain,249
2012-12-19,42,39,35,38,34,30,89,81,73,30.07,29.98,29.83,10,8,7,21,8,25,0.16,7,Rain,59
2012-12-20,54,43,31,48,37,28,100,83,65,29.77,29.34,29.14,10,5,2,33,18,48,1.09,8,Rain-Snow-Thunderstorm,210
2012-12-21,31,27,22,28,22,15,92,83,74,30.20,29.78,29.44,10,7,2,33,19,49,T,8,Snow,299
2012-12-22,30,22,14,20,15,11,88,78,68,30.28,30.18,30.02,10,10,10,12,5,15,0.00,0,,243
2012-12-23,39,29,18,28,22,16,91,78,64,30.02,29.97,29.94,10,10,8,12,4,14,0.00,0,,57
2012-12-24,33,30,26,29,27,24,92,85,78,30.06,29.89,29.82,10,7,3,14,7,18,T,6,,343
2012-12-25,35,31,26,27,24,22,92,77,61,30.26,30.17,30.06,10,10,8,20,10,25,0.00,6,,44
2012-12-26,31,30,28,27,24,21,92,81,69,30.09,29.92,29.84,10,5,0,24,16,32,0.14,8,Fog-Snow,25
2012-12-27,31,29,27,26,24,22,92,84,75,30.20,30.14,30.03,10,10,9,13,4,16,0.00,8,,324
2012-12-28,31,30,29,27,25,24,85,82,78,30.16,30.02,29.88,10,8,2,10,5,15,0.02,8,Snow,127
2012-12-29,31,26,21,28,24,16,100,87,74,30.27,29.96,29.83,10,5,1,23,10,31,0.04,8,Snow,311
2012-12-30,29,21,12,20,15,9,92,78,63,30.43,30.35,30.26,10,9,5,17,7,22,0.00,1,,236
2012-12-31,34,30,26,30,26,20,92,78,63,30.22,30.11,30.06,10,6,1,14,8,21,0.02,6,Snow,250